Time;durP1;ratioP1;P1;durP2;ratioP2;P2;SDS_P1;SDS_P2;PMS_P1;PMS_P2;Temp;Humidity;BMP_temperature;BMP_pressure;BME280_temperature;BME280_humidity;BME280_pressure;Samples;Min_cycle;Max_cycle;Signal;HPM_P1;HPM_P2
2023/06/19 00:00:30;;;;;;;15.40;9.68;;;;;;;16.64;100.00;100770.22;4991591;28;20465;-65
2023/06/19 00:02:57;;;;;;;12.18;10.15;;;;;;;16.67;100.00;100762.53;4974084;28;20059;-65
2023/06/19 00:05:24;;;;;;;12.43;10.55;;;;;;;16.63;100.00;100766.66;4991102;28;20070;-65
2023/06/19 00:07:51;;;;;;;14.07;9.88;;;;;;;16.66;100.00;100766.28;4990068;28;20070;-65
2023/06/19 00:10:18;;;;;;;12.40;9.55;;;;;;;16.67;100.00;100767.94;4990781;28;20112;-65
2023/06/19 00:12:45;;;;;;;13.43;9.98;;;;;;;16.60;100.00;100767.06;4990054;28;20047;-65
2023/06/19 00:15:11;;;;;;;11.52;10.30;;;;;;;16.62;100.00;100762.31;4990838;28;20085;-64
2023/06/19 00:17:38;;;;;;;11.93;10.20;;;;;;;16.57;100.00;100767.47;4990921;28;20100;-65
2023/06/19 00:20:06;;;;;;;16.02;10.52;;;;;;;16.34;100.00;100775.00;4990666;28;20409;-64
2023/06/19 00:22:32;;;;;;;12.15;10.38;;;;;;;16.47;100.00;100771.53;4991419;28;20042;-65
2023/06/19 00:24:59;;;;;;;11.95;10.60;;;;;;;16.26;100.00;100759.72;4990931;28;20046;-65
2023/06/19 00:27:26;;;;;;;12.50;11.27;;;;;;;16.29;100.00;100769.31;4991014;28;20077;-65
2023/06/19 00:29:52;;;;;;;17.95;11.98;;;;;;;16.42;100.00;100769.41;4991065;28;20046;-65
2023/06/19 00:32:20;;;;;;;12.57;11.27;;;;;;;16.31;100.00;100770.81;4990842;28;20064;-65
2023/06/19 00:34:46;;;;;;;12.82;10.90;;;;;;;16.30;100.00;100769.16;4990861;28;20050;-65
2023/06/19 00:37:13;;;;;;;12.35;10.80;;;;;;;16.38;100.00;100770.84;4986244;28;20050;-65
2023/06/19 00:39:40;;;;;;;13.10;10.93;;;;;;;16.43;100.00;100768.38;4990433;28;20050;-65
2023/06/19 00:42:10;;;;;;;14.90;11.60;;;;;;;16.43;100.00;100769.22;4990155;28;20093;-64
2023/06/19 00:44:37;;;;;;;15.25;11.45;;;;;;;16.46;100.00;100768.00;4990582;28;20101;-65
2023/06/19 00:47:04;;;;;;;12.43;11.07;;;;;;;16.49;100.00;100770.31;4991047;28;20050;-65
2023/06/19 00:49:31;;;;;;;13.27;11.18;;;;;;;16.51;100.00;100768.28;4989603;28;20038;-65
2023/06/19 00:51:58;;;;;;;12.10;10.90;;;;;;;16.56;100.00;100771.22;4990295;28;20042;-65
2023/06/19 00:54:25;;;;;;;11.32;10.13;;;;;;;16.48;100.00;100773.22;4990232;28;20050;-65
2023/06/19 00:56:52;;;;;;;11.35;9.63;;;;;;;16.46;100.00;100773.41;4990322;28;20050;-64
2023/06/19 00:59:20;;;;;;;11.43;10.25;;;;;;;16.27;100.00;100772.25;4989566;28;20046;-65
2023/06/19 01:01:46;;;;;;;17.40;10.38;;;;;;;16.22;100.00;100758.44;4990234;28;20078;-65
2023/06/19 01:04:13;;;;;;;12.05;10.43;;;;;;;16.10;100.00;100754.63;4990275;28;20078;-64
2023/06/19 01:07:30;;;;;;;11.57;10.30;;;;;;;16.06;100.00;100758.75;4990395;28;20073;-65
2023/06/19 01:10:01;;;;;;;12.82;10.93;;;;;;;16.12;100.00;100763.34;4989386;28;20073;-64
2023/06/19 01:12:36;;;;;;;11.48;9.90;;;;;;;16.18;100.00;100765.28;4989681;28;20104;-64
2023/06/19 01:15:05;;;;;;;12.00;10.70;;;;;;;16.22;100.00;100752.19;4990385;28;20435;-64
2023/06/19 01:17:32;;;;;;;14.65;11.00;;;;;;;16.21;100.00;100748.66;4990573;28;20089;-64
2023/06/19 01:20:00;;;;;;;11.60;9.80;;;;;;;16.03;100.00;100748.31;4991323;28;20072;-64
2023/06/19 01:22:30;;;;;;;13.73;10.88;;;;;;;16.09;100.00;100742.97;4994264;28;20050;-65
2023/06/19 01:24:57;;;;;;;12.90;10.67;;;;;;;16.05;100.00;100749.78;4994439;28;20121;-64
2023/06/19 01:27:25;;;;;;;15.68;10.50;;;;;;;16.04;100.00;100749.97;4993397;28;20050;-64
2023/06/19 01:29:53;;;;;;;13.05;10.45;;;;;;;15.99;100.00;100747.88;4994035;28;20439;-64
2023/06/19 01:32:28;;;;;;;13.02;10.25;;;;;;;16.07;100.00;100745.00;4992330;28;20454;-64
2023/06/19 01:34:57;;;;;;;15.35;11.07;;;;;;;16.09;100.00;100744.78;4976505;28;20426;-64
2023/06/19 01:37:28;;;;;;;13.50;10.35;;;;;;;16.11;100.00;100742.75;4993645;28;20046;-64
2023/06/19 01:39:57;;;;;;;13.23;11.15;;;;;;;16.07;100.00;100742.31;4993985;28;20058;-64
2023/06/19 01:42:26;;;;;;;15.18;11.27;;;;;;;16.02;100.00;100742.06;4993572;28;20046;-64
2023/06/19 01:44:53;;;;;;;12.38;11.07;;;;;;;15.85;100.00;100744.22;4993865;28;20057;-64
2023/06/19 01:47:20;;;;;;;21.67;11.57;;;;;;;15.92;100.00;100736.97;4993941;28;20042;-64
2023/06/19 01:49:47;;;;;;;13.85;9.77;;;;;;;16.01;100.00;100734.13;4993591;28;20073;-64
2023/06/19 01:52:14;;;;;;;12.13;10.60;;;;;;;16.05;100.00;100724.59;4993584;28;20166;-64
2023/06/19 01:54:40;;;;;;;13.05;10.77;;;;;;;16.09;100.00;100729.44;4993162;28;20128;-65
2023/06/19 01:57:07;;;;;;;12.50;11.10;;;;;;;16.11;100.00;100735.47;4993646;28;20120;-65
2023/06/19 01:59:34;;;;;;;13.00;11.20;;;;;;;16.08;100.00;100727.72;4994337;28;20046;-64
2023/06/19 02:02:00;;;;;;;14.48;11.15;;;;;;;16.12;100.00;100723.59;4993990;28;20050;-65
2023/06/19 02:04:27;;;;;;;14.45;12.10;;;;;;;16.13;100.00;100730.69;4993244;28;20445;-64
2023/06/19 02:06:53;;;;;;;13.40;11.48;;;;;;;16.14;100.00;100718.00;4993547;28;20103;-64
2023/06/19 02:09:20;;;;;;;15.23;11.85;;;;;;;16.08;100.00;100714.19;4993463;28;20466;-64
2023/06/19 02:11:47;;;;;;;14.10;12.63;;;;;;;16.09;100.00;100710.47;4975978;28;20565;-64
2023/06/19 02:14:13;;;;;;;14.45;12.35;;;;;;;16.06;100.00;100710.03;4993444;28;20046;-64
2023/06/19 02:16:43;;;;;;;13.27;11.88;;;;;;;16.00;100.00;100717.06;4993315;28;20042;-65
2023/06/19 02:19:11;;;;;;;16.98;12.82;;;;;;;15.98;100.00;100702.03;4993110;28;20057;-64
2023/06/19 02:21:38;;;;;;;16.05;12.27;;;;;;;15.97;100.00;100705.78;4993260;28;20054;-65
2023/06/19 02:24:05;;;;;;;14.43;13.00;;;;;;;15.94;100.00;100704.31;4993319;28;20457;-63
2023/06/19 02:26:32;;;;;;;13.82;12.43;;;;;;;15.93;100.00;100699.94;4993407;28;20046;-64
2023/06/19 02:28:59;;;;;;;15.82;13.05;;;;;;;15.96;100.00;100702.25;4992762;28;20073;-65
2023/06/19 02:31:25;;;;;;;18.88;13.23;;;;;;;15.87;100.00;100701.53;4992203;28;20112;-64
2023/06/19 02:33:52;;;;;;;15.75;13.07;;;;;;;15.74;100.00;100689.78;4992930;28;20454;-65
2023/06/19 02:36:19;;;;;;;19.40;13.18;;;;;;;15.74;100.00;100695.19;4992878;28;20054;-65
2023/06/19 02:38:49;;;;;;;17.13;12.75;;;;;;;15.68;100.00;100694.94;4992651;28;20050;-64
2023/06/19 02:41:16;;;;;;;18.13;12.95;;;;;;;15.72;100.00;100692.69;4992983;28;20096;-64
2023/06/19 02:43:44;;;;;;;15.43;12.85;;;;;;;15.66;100.00;100694.28;4993048;28;20082;-65
2023/06/19 02:46:10;;;;;;;15.02;13.13;;;;;;;15.72;100.00;100690.00;4992863;28;20065;-65
2023/06/19 02:48:39;;;;;;;17.15;13.43;;;;;;;15.73;100.00;100693.53;4992452;28;20418;-64
2023/06/19 02:51:05;;;;;;;13.95;12.50;;;;;;;15.74;100.00;100693.31;4992578;28;20164;-63
2023/06/19 02:53:32;;;;;;;15.68;13.07;;;;;;;15.74;100.00;100684.38;4993010;28;20422;-65
2023/06/19 02:55:58;;;;;;;16.00;12.82;;;;;;;15.70;100.00;100690.16;4992603;28;20061;-67
2023/06/19 02:58:26;;;;;;;15.38;12.63;;;;;;;15.68;100.00;100697.66;4992372;28;20128;-65
2023/06/19 03:00:53;;;;;;;15.45;12.65;;;;;;;15.67;100.00;100693.28;4991842;28;20691;-66
2023/06/19 03:03:19;;;;;;;18.33;13.13;;;;;;;15.73;100.00;100688.94;4991867;28;20447;-65
2023/06/19 03:05:46;;;;;;;14.00;11.60;;;;;;;15.71;100.00;100694.56;4992364;28;20050;-65
2023/06/19 03:08:13;;;;;;;20.83;14.57;;;;;;;15.78;100.00;100697.34;4991689;28;20042;-65
2023/06/19 03:10:39;;;;;;;16.73;13.27;;;;;;;15.66;100.00;100694.28;4992296;28;20045;-65
2023/06/19 03:13:06;;;;;;;15.80;12.82;;;;;;;15.67;100.00;100690.59;4992357;28;20568;-66
2023/06/19 03:15:32;;;;;;;15.00;13.27;;;;;;;15.62;100.00;100697.56;4992824;28;20112;-66
2023/06/19 03:18:03;;;;;;;18.67;15.35;;;;;;;15.52;100.00;100689.78;4992339;28;20038;-66
2023/06/19 03:20:29;;;;;;;15.05;13.35;;;;;;;15.57;100.00;100700.84;4992024;28;20053;-65
2023/06/19 03:22:56;;;;;;;18.40;14.75;;;;;;;15.56;100.00;100701.88;4991817;28;20359;-66
2023/06/19 03:25:22;;;;;;;17.77;14.25;;;;;;;15.58;100.00;100707.09;4991906;28;20073;-66
2023/06/19 03:27:49;;;;;;;15.63;14.02;;;;;;;15.52;100.00;100707.88;4991696;28;20120;-65
2023/06/19 03:30:18;;;;;;;14.52;13.02;;;;;;;15.60;100.00;100716.66;4992090;28;20070;-66
2023/06/19 03:32:45;;;;;;;17.83;13.50;;;;;;;15.73;100.00;100716.00;4991950;28;20074;-65
2023/06/19 03:35:11;;;;;;;19.05;14.25;;;;;;;15.87;100.00;100722.34;4991545;28;20466;-65
2023/06/19 03:37:38;;;;;;;17.98;13.27;;;;;;;15.76;100.00;100709.38;4991665;28;20051;-65
2023/06/19 03:40:05;;;;;;;17.75;14.18;;;;;;;15.86;100.00;100716.13;5005566;28;20045;-65
2023/06/19 03:42:32;;;;;;;15.80;13.75;;;;;;;16.04;100.00;100714.81;5010520;28;20065;-65
2023/06/19 03:44:58;;;;;;;20.60;14.57;;;;;;;16.03;100.00;100719.38;5010042;28;20146;-65
2023/06/19 03:47:25;;;;;;;19.58;14.38;;;;;;;15.87;100.00;100716.94;5010885;28;20429;-65
2023/06/19 03:49:51;;;;;;;15.93;13.60;;;;;;;15.89;100.00;100715.72;5010552;28;20054;-65
2023/06/19 03:52:20;;;;;;;19.05;14.48;;;;;;;15.81;100.00;100715.88;5011048;28;20069;-65
2023/06/19 03:54:47;;;;;;;15.88;14.27;;;;;;;15.97;100.00;100712.03;5010734;28;20096;-64
2023/06/19 03:57:13;;;;;;;16.88;14.30;;;;;;;15.95;100.00;100708.69;5010810;28;20422;-65
2023/06/19 03:59:40;;;;;;;17.38;13.43;;;;;;;16.07;100.00;100712.53;5010840;28;20517;-65
2023/06/19 04:02:07;;;;;;;18.23;15.02;;;;;;;16.14;100.00;100712.59;5010819;28;20088;-64
2023/06/19 04:04:33;;;;;;;17.27;13.93;;;;;;;16.19;100.00;100715.53;5010970;28;20046;-64
2023/06/19 04:07:00;;;;;;;17.15;14.40;;;;;;;16.13;100.00;100706.34;5010786;28;20046;-65
2023/06/19 04:09:27;;;;;;;16.70;14.38;;;;;;;16.13;100.00;100705.50;5010596;28;20119;-65
2023/06/19 04:11:53;;;;;;;18.67;13.90;;;;;;;16.07;100.00;100696.31;5010364;28;20049;-65
2023/06/19 04:14:22;;;;;;;20.52;14.38;;;;;;;16.11;100.00;100692.16;5010293;28;20046;-65
2023/06/19 04:16:49;;;;;;;16.63;14.88;;;;;;;16.15;100.00;100682.59;5009989;28;20053;-64
2023/06/19 04:19:16;;;;;;;17.52;13.80;;;;;;;16.15;100.00;100688.03;5010298;28;20049;-64
2023/06/19 04:21:42;;;;;;;18.00;13.35;;;;;;;16.13;100.00;100689.28;5010076;28;20050;-64
2023/06/19 04:24:09;;;;;;;18.55;13.45;;;;;;;16.07;100.00;100690.06;5010363;28;20049;-64
2023/06/19 04:26:36;;;;;;;19.75;13.43;;;;;;;16.09;100.00;100696.94;5010398;28;20042;-61
2023/06/19 04:29:03;;;;;;;16.52;13.23;;;;;;;16.04;100.00;100710.22;5010525;28;20753;-65
2023/06/19 04:31:30;;;;;;;15.32;12.27;;;;;;;16.18;100.00;100708.44;5010218;28;20112;-65
2023/06/19 04:33:57;;;;;;;17.98;12.55;;;;;;;16.19;100.00;100710.97;5009526;28;20401;-65
2023/06/19 04:36:23;;;;;;;14.90;13.30;;;;;;;16.18;100.00;100720.09;4998425;28;20157;-65
2023/06/19 04:38:53;;;;;;;14.68;12.80;;;;;;;15.87;100.00;100708.84;4990013;28;20050;-67
2023/06/19 04:41:20;;;;;;;14.45;12.15;;;;;;;16.05;100.00;100713.75;4990188;28;20461;-65
2023/06/19 04:43:46;;;;;;;15.88;13.60;;;;;;;16.06;100.00;100710.88;4990071;28;20201;-65
2023/06/19 04:46:13;;;;;;;19.60;13.57;;;;;;;16.17;100.00;100721.16;4989900;28;20065;-65
2023/06/19 04:48:41;;;;;;;14.23;12.63;;;;;;;16.29;100.00;100712.47;4973100;28;20097;-65
2023/06/19 04:51:07;;;;;;;17.30;12.50;;;;;;;16.35;100.00;100719.81;4990159;28;20419;-65
2023/06/19 04:53:34;;;;;;;14.55;13.00;;;;;;;16.23;100.00;100713.25;4989963;28;20101;-65
2023/06/19 04:56:00;;;;;;;16.38;13.38;;;;;;;16.28;100.00;100721.63;4989683;28;20171;-65
2023/06/19 04:58:28;;;;;;;13.82;12.40;;;;;;;16.33;100.00;100727.28;4989515;28;20053;-65
2023/06/19 05:00:54;;;;;;;19.80;13.90;;;;;;;16.13;100.00;100730.69;4989941;28;20054;-65
2023/06/19 05:03:21;;;;;;;14.05;12.55;;;;;;;15.93;100.00;100727.00;4989548;28;20415;-65
2023/06/19 05:05:48;;;;;;;19.05;13.55;;;;;;;15.98;100.00;100721.81;4999696;28;20084;-65
2023/06/19 05:08:15;;;;;;;14.13;12.63;;;;;;;16.14;100.00;100740.47;5010570;28;20417;-65
2023/06/19 05:10:41;;;;;;;16.08;13.00;;;;;;;16.10;100.00;100733.78;5010403;28;20411;-65
2023/06/19 05:13:11;;;;;;;21.17;13.15;;;;;;;16.28;100.00;100740.59;5009892;28;20046;-65
2023/06/19 05:15:38;;;;;;;14.23;12.73;;;;;;;16.35;100.00;100736.88;5010288;28;20050;-64
2023/06/19 05:18:05;;;;;;;13.95;12.55;;;;;;;16.39;100.00;100745.44;5010421;28;20056;-65
2023/06/19 05:20:31;;;;;;;17.50;14.20;;;;;;;16.21;100.00;100745.13;5009999;28;20070;-65
2023/06/19 05:22:58;;;;;;;16.58;13.23;;;;;;;16.09;100.00;100737.53;5009465;28;20042;-65
2023/06/19 05:25:24;;;;;;;18.05;13.93;;;;;;;16.10;100.00;100733.78;5010172;28;20050;-67
2023/06/19 05:27:51;;;;;;;18.27;13.52;;;;;;;16.14;100.00;100735.06;5008707;28;20494;-66
2023/06/19 05:30:17;;;;;;;14.57;12.85;;;;;;;16.27;100.00;100739.75;5009791;28;20054;-66
2023/06/19 05:32:44;;;;;;;16.95;13.75;;;;;;;16.29;100.00;100739.53;5008242;28;20088;-67
2023/06/19 05:35:11;;;;;;;24.08;13.60;;;;;;;16.44;100.00;100740.28;5007306;28;20042;-65
2023/06/19 05:37:43;;;;;;;18.40;14.40;;;;;;;16.42;100.00;100739.63;4990152;28;20038;-66
2023/06/19 05:40:10;;;;;;;17.35;14.10;;;;;;;16.41;100.00;100736.09;4990365;28;20486;-65
2023/06/19 05:42:37;;;;;;;19.23;14.88;;;;;;;16.42;100.00;100731.50;4989738;28;20046;-65
2023/06/19 05:45:04;;;;;;;20.08;14.38;;;;;;;16.58;100.00;100733.13;4999129;28;20053;-67
2023/06/19 05:47:31;;;;;;;15.88;14.18;;;;;;;16.67;100.00;100718.34;5010280;28;20050;-66
2023/06/19 05:49:58;;;;;;;24.30;14.65;;;;;;;16.74;100.00;100723.81;5010057;28;20049;-66
2023/06/19 05:52:24;;;;;;;25.13;14.73;;;;;;;16.69;100.00;100729.00;5009901;28;20052;-66
2023/06/19 05:54:53;;;;;;;24.17;14.30;;;;;;;16.69;100.00;100729.00;5010013;28;20461;-64
2023/06/19 05:57:22;;;;;;;20.98;13.20;;;;;;;16.63;100.00;100728.75;5009603;28;20429;-64
2023/06/19 05:59:50;;;;;;;15.27;13.52;;;;;;;16.53;100.00;100736.41;5005803;28;20050;-63
2023/06/19 06:02:18;;;;;;;18.17;13.15;;;;;;;16.45;100.00;100725.72;5004863;28;20046;-63
2023/06/19 06:04:45;;;;;;;18.40;14.35;;;;;;;16.30;100.00;100728.53;4990132;28;20038;-63
2023/06/19 06:07:13;;;;;;;15.93;12.95;;;;;;;16.62;100.00;100724.38;4991024;28;20046;-64
2023/06/19 06:09:39;;;;;;;16.52;12.07;;;;;;;16.68;100.00;100720.06;4994189;28;20050;-63
2023/06/19 06:12:07;;;;;;;23.92;13.38;;;;;;;16.54;100.00;100723.69;4994754;28;20100;-64
2023/06/19 06:14:33;;;;;;;14.25;12.75;;;;;;;16.63;100.00;100719.78;4993954;28;20046;-64
2023/06/19 06:17:00;;;;;;;19.75;14.02;;;;;;;16.60;100.00;100729.16;4993914;28;20050;-64
2023/06/19 06:19:26;;;;;;;22.27;12.80;;;;;;;16.82;100.00;100734.50;4994106;28;20133;-66
2023/06/19 06:21:53;;;;;;;20.42;14.35;;;;;;;16.97;100.00;100735.19;4994033;28;20054;-64
2023/06/19 06:24:19;;;;;;;16.45;12.70;;;;;;;17.06;100.00;100743.94;4993891;28;20049;-64
2023/06/19 06:26:46;;;;;;;17.58;13.40;;;;;;;17.07;100.00;100734.81;4993462;28;20042;-64
2023/06/19 06:29:13;;;;;;;19.92;12.75;;;;;;;17.19;100.00;100738.59;4993664;28;20061;-65
2023/06/19 06:31:41;;;;;;;14.85;13.30;;;;;;;17.30;100.00;100745.28;4993742;28;20050;-65
2023/06/19 06:34:08;;;;;;;19.00;13.48;;;;;;;17.22;100.00;100737.34;4993446;28;20050;-65
2023/06/19 06:36:34;;;;;;;15.45;12.75;;;;;;;17.34;100.00;100739.31;4993733;28;20054;-64
2023/06/19 06:39:05;;;;;;;15.00;12.50;;;;;;;17.42;100.00;100748.28;4993089;28;20157;-64
2023/06/19 06:41:32;;;;;;;17.00;12.13;;;;;;;17.46;100.00;100750.38;4993806;28;20089;-64
2023/06/19 06:43:59;;;;;;;19.92;14.32;;;;;;;17.54;100.00;100752.88;4993154;28;20461;-67
2023/06/19 06:46:25;;;;;;;14.77;12.63;;;;;;;17.54;100.00;100750.19;4993362;28;20490;-67
2023/06/19 06:48:52;;;;;;;17.20;13.10;;;;;;;17.57;100.00;100744.34;4993050;28;20050;-67
2023/06/19 06:51:19;;;;;;;23.35;13.30;;;;;;;17.60;100.00;100746.66;4993426;28;20058;-67
2023/06/19 06:53:45;;;;;;;21.30;13.98;;;;;;;17.60;100.00;100743.94;4992637;28;20422;-67
2023/06/19 06:56:11;;;;;;;22.77;14.40;;;;;;;17.65;100.00;100747.91;4993013;28;20197;-66
2023/06/19 06:58:39;;;;;;;17.15;13.55;;;;;;;17.70;100.00;100751.69;4992858;28;20450;-66
2023/06/19 07:01:05;;;;;;;18.00;13.90;;;;;;;17.69;100.00;100743.75;4993615;28;20054;-67
2023/06/19 07:03:32;;;;;;;18.20;14.45;;;;;;;17.69;100.00;100749.19;4992775;28;20048;-66
2023/06/19 07:05:59;;;;;;;20.08;14.05;;;;;;;17.79;100.00;100749.63;4993003;28;20129;-66
2023/06/19 07:08:25;;;;;;;15.82;13.93;;;;;;;17.77;100.00;100751.69;4992823;28;20046;-67
2023/06/19 07:10:52;;;;;;;16.30;13.80;;;;;;;17.82;100.00;100751.88;4975707;28;20050;-66
2023/06/19 07:13:18;;;;;;;16.17;13.27;;;;;;;17.85;100.00;100740.63;4992647;28;20078;-68
2023/06/19 07:15:45;;;;;;;16.73;12.25;;;;;;;17.96;100.00;100750.03;4992267;28;20466;-66
2023/06/19 07:18:11;;;;;;;20.52;13.60;;;;;;;18.00;100.00;100757.56;4992584;28;20074;-66
2023/06/19 07:20:38;;;;;;;16.70;13.32;;;;;;;17.94;100.00;100752.94;4993208;28;20050;-66
2023/06/19 07:23:05;;;;;;;18.10;13.90;;;;;;;18.05;100.00;100756.91;4993019;28;20078;-67
2023/06/19 07:25:33;;;;;;;16.52;13.52;;;;;;;18.15;100.00;100761.97;4992784;28;20046;-66
2023/06/19 07:28:01;;;;;;;17.30;13.77;;;;;;;18.13;100.00;100758.59;4992330;28;20413;-67
2023/06/19 07:30:27;;;;;;;19.38;13.93;;;;;;;18.34;100.00;100757.56;4992254;28;20050;-66
2023/06/19 07:32:54;;;;;;;15.30;11.93;;;;;;;18.47;100.00;100752.94;4992543;28;20050;-67
2023/06/19 07:35:21;;;;;;;21.02;13.27;;;;;;;18.46;100.00;100759.44;4992009;28;20081;-66
2023/06/19 07:37:47;;;;;;;19.48;13.23;;;;;;;18.53;100.00;100759.41;4992795;28;20054;-67
2023/06/19 07:40:14;;;;;;;18.60;12.40;;;;;;;18.66;100.00;100772.16;4992723;28;20070;-66
2023/06/19 07:42:41;;;;;;;14.10;12.23;;;;;;;18.61;100.00;100759.19;4992455;28;20451;-67
2023/06/19 07:45:11;;;;;;;18.05;12.38;;;;;;;19.01;100.00;100764.53;4992444;28;20046;-66
2023/06/19 07:47:37;;;;;;;17.45;12.32;;;;;;;19.21;100.00;100756.31;4992346;28;20066;-67
2023/06/19 07:50:04;;;;;;;24.50;13.18;;;;;;;19.25;100.00;100760.25;4992535;28;20049;-67
2023/06/19 07:52:31;;;;;;;17.33;12.57;;;;;;;19.37;100.00;100766.66;4992400;28;20049;-67
2023/06/19 07:54:58;;;;;;;14.77;11.73;;;;;;;19.53;100.00;100765.34;4991967;28;20113;-67
2023/06/19 07:57:26;;;;;;;18.00;12.32;;;;;;;19.64;100.00;100758.34;4992056;28;20474;-66
2023/06/19 07:59:54;;;;;;;15.57;11.23;;;;;;;19.68;100.00;100765.06;4991964;28;20054;-67
2023/06/19 08:02:21;;;;;;;17.05;11.65;;;;;;;19.67;100.00;100768.81;5006626;28;20042;-67
2023/06/19 08:04:48;;;;;;;14.95;11.60;;;;;;;19.77;100.00;100754.75;4991566;28;20531;-67
2023/06/19 08:07:14;;;;;;;19.50;11.82;;;;;;;19.74;100.00;100764.19;4991540;28;20117;-67
2023/06/19 08:09:41;;;;;;;14.60;11.15;;;;;;;19.88;100.00;100767.66;4991568;28;20418;-66
2023/06/19 08:12:08;;;;;;;15.45;10.95;;;;;;;19.77;100.00;100763.75;4991917;28;20105;-66
2023/06/19 08:14:34;;;;;;;17.92;11.55;;;;;;;19.98;100.00;100772.59;4992110;28;20097;-66
2023/06/19 08:17:01;;;;;;;14.98;11.07;;;;;;;19.95;100.00;100769.25;4991933;28;20092;-66
2023/06/19 08:19:27;;;;;;;21.30;11.80;;;;;;;19.80;100.00;100766.03;4991962;28;20058;-66
2023/06/19 08:21:54;;;;;;;17.95;11.93;;;;;;;19.93;100.00;100774.09;4991553;28;20054;-67
2023/06/19 08:24:20;;;;;;;15.52;11.10;;;;;;;19.95;100.00;100765.69;4991665;28;20058;-66
2023/06/19 08:26:50;;;;;;;14.85;11.25;;;;;;;19.89;100.00;100772.84;4991406;28;20062;-66
2023/06/19 08:29:18;;;;;;;20.27;12.25;;;;;;;19.87;100.00;100774.97;4990519;28;20050;-66
2023/06/19 08:31:45;;;;;;;17.17;11.88;;;;;;;19.77;100.00;100774.63;4991397;28;20046;-67
2023/06/19 08:34:11;;;;;;;18.95;11.75;;;;;;;19.75;100.00;100768.56;4991414;28;20093;-67
2023/06/19 08:36:38;;;;;;;16.13;11.15;;;;;;;19.87;100.00;100772.25;4990838;28;20101;-68
2023/06/19 08:39:04;;;;;;;18.67;11.15;;;;;;;19.88;100.00;100770.38;4992184;28;20057;-66
2023/06/19 08:41:31;;;;;;;21.15;11.07;;;;;;;19.88;100.00;100760.31;4991286;28;20065;-65
2023/06/19 08:43:58;;;;;;;16.50;10.48;;;;;;;19.93;100.00;100762.34;4991098;28;20105;-67
2023/06/19 08:46:24;;;;;;;15.43;11.32;;;;;;;20.04;100.00;100758.06;4991074;28;20042;-67
2023/06/19 08:48:51;;;;;;;19.95;11.07;;;;;;;20.06;100.00;100759.53;4991043;28;20137;-67
2023/06/19 08:51:18;;;;;;;15.27;11.57;;;;;;;20.20;100.00;100757.53;4991171;28;20069;-67
2023/06/19 08:54:00;;;;;;;13.90;11.35;;;;;;;20.04;100.00;100752.63;4990957;28;20046;-66
2023/06/19 08:56:27;;;;;;;17.83;11.13;;;;;;;20.26;100.00;100756.63;4991011;28;20129;-66
2023/06/19 08:58:53;;;;;;;23.33;11.70;;;;;;;20.35;100.00;100755.31;4990966;28;20096;-66
2023/06/19 09:01:20;;;;;;;23.35;11.65;;;;;;;20.57;100.00;100754.91;4991044;28;20058;-67
2023/06/19 09:03:51;;;;;;;19.08;12.48;;;;;;;20.65;100.00;100757.31;4990576;28;20065;-66
2023/06/19 09:06:18;;;;;;;24.08;11.70;;;;;;;20.52;100.00;100762.91;4990937;28;20490;-67
2023/06/19 09:08:45;;;;;;;15.68;11.27;;;;;;;20.57;100.00;100768.53;4990845;28;20053;-67
2023/06/19 09:11:12;;;;;;;14.75;11.70;;;;;;;20.59;100.00;100774.56;4990985;28;20038;-67
2023/06/19 09:13:38;;;;;;;18.20;11.57;;;;;;;20.63;100.00;100767.63;4990644;28;20042;-65
2023/06/19 09:16:07;;;;;;;19.95;11.43;;;;;;;20.68;100.00;100762.31;4991346;28;20050;-67
2023/06/19 09:18:47;;;;;;;16.75;11.20;;;;;;;20.67;100.00;100768.84;4991096;28;20195;-67
2023/06/19 09:21:23;;;;;;;15.57;11.45;;;;;;;20.71;100.00;100775.50;4989731;28;20042;-68
2023/06/19 09:23:51;;;;;;;14.32;10.85;;;;;;;20.67;100.00;100771.56;4990978;28;20568;-67
2023/06/19 09:26:19;;;;;;;15.65;12.13;;;;;;;20.59;100.00;100777.31;4990933;28;20042;-67
2023/06/19 09:28:46;;;;;;;18.58;11.80;;;;;;;20.35;100.00;100778.97;4990101;28;20053;-67
2023/06/19 09:31:13;;;;;;;17.88;12.02;;;;;;;20.32;100.00;100772.09;4990829;28;20418;-67
2023/06/19 09:33:40;;;;;;;24.50;11.45;;;;;;;20.37;100.00;100763.25;4990914;28;20073;-67
2023/06/19 09:36:07;;;;;;;16.55;11.27;;;;;;;20.26;100.00;100783.88;4991260;28;20066;-68
2023/06/19 09:38:38;;;;;;;23.83;11.88;;;;;;;20.31;100.00;100781.31;4990986;28;20046;-67
2023/06/19 09:41:06;;;;;;;12.95;11.43;;;;;;;20.56;100.00;100784.06;4990743;28;20045;-67
2023/06/19 09:43:47;;;;;;;18.52;12.10;;;;;;;20.55;100.00;100785.09;4994488;28;20038;-67
2023/06/19 09:46:14;;;;;;;14.02;11.10;;;;;;;20.63;100.00;100784.81;4994494;28;20482;-67
2023/06/19 09:48:43;;;;;;;20.30;11.73;;;;;;;20.71;100.00;100780.97;4994728;28;20545;-68
2023/06/19 09:51:15;;;;;;;19.88;11.60;;;;;;;20.78;100.00;100778.16;4994660;28;20066;-68
2023/06/19 09:53:44;;;;;;;13.43;11.50;;;;;;;20.88;100.00;100771.13;4994230;28;20042;-67
2023/06/19 09:56:13;;;;;;;16.58;12.02;;;;;;;20.96;100.00;100771.88;4994523;28;20517;-67
2023/06/19 09:58:42;;;;;;;14.52;11.70;;;;;;;20.98;100.00;100756.13;4994562;28;20109;-68
2023/06/19 10:01:09;;;;;;;16.05;11.55;;;;;;;20.81;100.00;100748.56;4994070;28;20050;-67
2023/06/19 10:03:36;;;;;;;14.75;11.98;;;;;;;20.63;100.00;100754.00;4994571;28;20383;-68
2023/06/19 10:06:04;;;;;;;14.35;12.05;;;;;;;20.69;100.00;100753.09;5009808;28;20405;-67
2023/06/19 10:08:39;;;;;;;16.45;11.90;;;;;;;20.89;100.00;100744.69;4994142;28;20117;-67
2023/06/19 10:11:06;;;;;;;13.80;11.80;;;;;;;21.00;100.00;100748.53;4994095;28;20046;-67
2023/06/19 10:13:40;;;;;;;23.00;11.18;;;;;;;21.00;100.00;100741.19;4994135;28;20042;-67
2023/06/19 10:16:08;;;;;;;20.40;11.90;;;;;;;21.10;100.00;100746.94;4992994;28;20050;-67
2023/06/19 10:18:46;;;;;;;22.60;12.38;;;;;;;21.20;100.00;100740.97;4994282;28;20050;-68
2023/06/19 10:21:20;;;;;;;13.25;10.95;;;;;;;21.22;100.00;100741.56;4993805;28;20042;-67
2023/06/19 10:23:57;;;;;;;16.00;11.23;;;;;;;21.28;100.00;100743.34;4993403;28;20093;-67
2023/06/19 10:26:37;;;;;;;14.75;11.40;;;;;;;21.41;98.66;100736.91;4993784;28;20050;-67
2023/06/19 10:29:14;;;;;;;15.25;10.93;;;;;;;21.47;99.15;100748.78;4993651;28;20046;-68
2023/06/19 10:31:41;;;;;;;14.35;11.35;;;;;;;21.56;100.00;100742.78;4993441;28;20046;-67
2023/06/19 10:34:08;;;;;;;14.00;11.90;;;;;;;21.57;100.00;100735.41;4976058;28;20081;-66
2023/06/19 10:36:35;;;;;;;16.35;11.70;;;;;;;21.28;100.00;100723.44;4994097;28;20118;-68
2023/06/19 10:39:01;;;;;;;14.70;12.35;;;;;;;21.29;100.00;100715.03;4993715;28;20049;-67
2023/06/19 10:41:28;;;;;;;14.27;12.43;;;;;;;21.43;100.00;100715.66;4993343;28;20093;-67
2023/06/19 10:44:01;;;;;;;16.52;11.30;;;;;;;21.68;100.00;100714.66;4993242;28;20038;-67
2023/06/19 10:46:30;;;;;;;17.48;12.00;;;;;;;21.88;100.00;100711.66;4993578;28;20415;-67
2023/06/19 10:49:03;;;;;;;13.20;11.32;;;;;;;22.06;100.00;100703.34;4993406;28;20536;-68
2023/06/19 10:51:31;;;;;;;13.32;11.23;;;;;;;21.73;94.65;100701.97;4993392;28;20042;-68
2023/06/19 10:53:57;;;;;;;11.70;10.50;;;;;;;21.90;91.95;100688.47;4992885;28;20046;-67
2023/06/19 10:56:24;;;;;;;14.63;10.63;;;;;;;22.00;85.08;100685.16;4993370;28;20062;-68
2023/06/19 10:59:04;;;;;;;15.63;10.25;;;;;;;22.02;86.24;100678.41;4993042;28;20498;-68
2023/06/19 11:01:42;;;;;;;12.40;11.10;;;;;;;21.87;86.58;100674.47;4993146;28;20046;-67
2023/06/19 11:04:10;;;;;;;17.63;11.10;;;;;;;22.07;86.44;100672.22;4992840;28;20104;-67